sensor_id;sensor_type;location;lat;lon;timestamp;temperature;humidity
4934;DHT22;2482;49.154;8.254;2023-05-07T00:00:03;12.90;99.90
4934;DHT22;2482;49.154;8.254;2023-05-07T00:02:35;13.10;99.90
4934;DHT22;2482;49.154;8.254;2023-05-07T00:05:03;13.10;99.90
4934;DHT22;2482;49.154;8.254;2023-05-07T00:07:30;12.90;99.90
4934;DHT22;2482;49.154;8.254;2023-05-07T00:09:57;13.10;99.90
4934;DHT22;2482;49.154;8.254;2023-05-07T00:12:24;13.20;99.90
4934;DHT22;2482;49.154;8.254;2023-05-07T00:14:52;13.20;99.90
4934;DHT22;2482;49.154;8.254;2023-05-07T00:17:18;13.40;99.90
4934;DHT22;2482;49.154;8.254;2023-05-07T00:19:46;13.70;99.90
4934;DHT22;2482;49.154;8.254;2023-05-07T00:22:13;13.60;99.90
4934;DHT22;2482;49.154;8.254;2023-05-07T00:24:40;13.60;99.90
4934;DHT22;2482;49.154;8.254;2023-05-07T00:27:07;13.60;99.90
4934;DHT22;2482;49.154;8.254;2023-05-07T00:29:34;13.60;99.90
4934;DHT22;2482;49.154;8.254;2023-05-07T00:32:01;13.90;99.90
4934;DHT22;2482;49.154;8.254;2023-05-07T00:34:28;13.80;99.90
4934;DHT22;2482;49.154;8.254;2023-05-07T00:36:55;13.90;99.90
4934;DHT22;2482;49.154;8.254;2023-05-07T00:39:22;13.70;99.90
4934;DHT22;2482;49.154;8.254;2023-05-07T00:41:49;13.60;99.90
4934;DHT22;2482;49.154;8.254;2023-05-07T00:44:18;13.80;99.90
4934;DHT22;2482;49.154;8.254;2023-05-07T00:46:45;13.80;99.90
4934;DHT22;2482;49.154;8.254;2023-05-07T00:49:15;13.80;99.90
4934;DHT22;2482;49.154;8.254;2023-05-07T00:51:43;13.80;99.90
4934;DHT22;2482;49.154;8.254;2023-05-07T00:54:11;13.80;99.90
4934;DHT22;2482;49.154;8.254;2023-05-07T00:56:38;13.60;99.90
4934;DHT22;2482;49.154;8.254;2023-05-07T00:59:06;13.30;99.90
4934;DHT22;2482;49.154;8.254;2023-05-07T01:01:33;13.40;99.90
4934;DHT22;2482;49.154;8.254;2023-05-07T01:04:00;13.30;99.90
4934;DHT22;2482;49.154;8.254;2023-05-07T01:06:29;13.30;99.90
4934;DHT22;2482;49.154;8.254;2023-05-07T01:08:57;13.40;99.90
4934;DHT22;2482;49.154;8.254;2023-05-07T01:11:25;13.40;99.90
4934;DHT22;2482;49.154;8.254;2023-05-07T01:13:53;13.50;99.90
4934;DHT22;2482;49.154;8.254;2023-05-07T01:16:20;13.50;99.90
4934;DHT22;2482;49.154;8.254;2023-05-07T01:18:48;13.40;99.90
4934;DHT22;2482;49.154;8.254;2023-05-07T01:21:16;13.30;99.90
4934;DHT22;2482;49.154;8.254;2023-05-07T01:23:44;13.40;99.90
4934;DHT22;2482;49.154;8.254;2023-05-07T01:26:12;13.40;99.90
4934;DHT22;2482;49.154;8.254;2023-05-07T01:28:40;13.40;99.90
4934;DHT22;2482;49.154;8.254;2023-05-07T01:31:07;13.30;99.90
4934;DHT22;2482;49.154;8.254;2023-05-07T01:33:36;13.10;99.90
4934;DHT22;2482;49.154;8.254;2023-05-07T01:36:05;13.20;99.90
4934;DHT22;2482;49.154;8.254;2023-05-07T01:38:34;13.30;99.90
4934;DHT22;2482;49.154;8.254;2023-05-07T01:41:03;13.30;99.90
4934;DHT22;2482;49.154;8.254;2023-05-07T01:43:30;13.30;99.90
4934;DHT22;2482;49.154;8.254;2023-05-07T01:45:57;13.20;99.90
4934;DHT22;2482;49.154;8.254;2023-05-07T01:48:25;13.10;99.90
4934;DHT22;2482;49.154;8.254;2023-05-07T01:50:53;13.00;99.90
4934;DHT22;2482;49.154;8.254;2023-05-07T01:53:20;13.00;99.90
4934;DHT22;2482;49.154;8.254;2023-05-07T01:55:47;13.10;99.90
4934;DHT22;2482;49.154;8.254;2023-05-07T01:58:14;13.10;99.90
4934;DHT22;2482;49.154;8.254;2023-05-07T02:00:41;13.10;99.90
4934;DHT22;2482;49.154;8.254;2023-05-07T02:03:08;13.20;99.90
4934;DHT22;2482;49.154;8.254;2023-05-07T02:05:35;13.20;99.90
4934;DHT22;2482;49.154;8.254;2023-05-07T02:08:02;13.30;99.90
4934;DHT22;2482;49.154;8.254;2023-05-07T02:10:29;13.20;99.90
4934;DHT22;2482;49.154;8.254;2023-05-07T02:12:56;13.10;99.90
4934;DHT22;2482;49.154;8.254;2023-05-07T02:15:23;13.00;99.90
4934;DHT22;2482;49.154;8.254;2023-05-07T02:18:02;12.90;99.90
4934;DHT22;2482;49.154;8.254;2023-05-07T02:20:31;12.70;99.90
4934;DHT22;2482;49.154;8.254;2023-05-07T02:22:58;12.70;99.90
4934;DHT22;2482;49.154;8.254;2023-05-07T02:25:25;12.70;99.90
4934;DHT22;2482;49.154;8.254;2023-05-07T02:27:52;12.80;99.90
4934;DHT22;2482;49.154;8.254;2023-05-07T02:30:19;12.70;99.90
4934;DHT22;2482;49.154;8.254;2023-05-07T02:32:48;12.80;99.90
4934;DHT22;2482;49.154;8.254;2023-05-07T02:35:15;12.80;99.90
4934;DHT22;2482;49.154;8.254;2023-05-07T02:37:42;12.70;99.90
4934;DHT22;2482;49.154;8.254;2023-05-07T02:40:09;12.90;99.90
4934;DHT22;2482;49.154;8.254;2023-05-07T02:42:38;13.10;99.90
4934;DHT22;2482;49.154;8.254;2023-05-07T02:45:05;12.90;99.90
4934;DHT22;2482;49.154;8.254;2023-05-07T02:47:33;13.00;99.90
4934;DHT22;2482;49.154;8.254;2023-05-07T02:50:00;12.90;99.90
4934;DHT22;2482;49.154;8.254;2023-05-07T02:52:27;12.60;99.90
4934;DHT22;2482;49.154;8.254;2023-05-07T02:54:54;12.70;99.90
4934;DHT22;2482;49.154;8.254;2023-05-07T02:57:21;12.80;99.90
4934;DHT22;2482;49.154;8.254;2023-05-07T02:59:48;12.80;99.90
4934;DHT22;2482;49.154;8.254;2023-05-07T03:02:15;13.00;99.90
4934;DHT22;2482;49.154;8.254;2023-05-07T03:04:42;12.90;99.90
4934;DHT22;2482;49.154;8.254;2023-05-07T03:07:09;12.80;99.90
4934;DHT22;2482;49.154;8.254;2023-05-07T03:09:36;12.70;99.90
4934;DHT22;2482;49.154;8.254;2023-05-07T03:12:03;12.60;99.90
4934;DHT22;2482;49.154;8.254;2023-05-07T03:14:30;12.60;99.90
4934;DHT22;2482;49.154;8.254;2023-05-07T03:16:57;12.50;99.90
4934;DHT22;2482;49.154;8.254;2023-05-07T03:19:24;12.30;99.90
4934;DHT22;2482;49.154;8.254;2023-05-07T03:21:51;12.40;99.90
4934;DHT22;2482;49.154;8.254;2023-05-07T03:24:18;12.40;99.90
4934;DHT22;2482;49.154;8.254;2023-05-07T03:26:44;12.40;99.90
4934;DHT22;2482;49.154;8.254;2023-05-07T03:29:11;12.40;99.90
4934;DHT22;2482;49.154;8.254;2023-05-07T03:31:38;12.40;99.90
4934;DHT22;2482;49.154;8.254;2023-05-07T03:34:05;12.30;99.90
4934;DHT22;2482;49.154;8.254;2023-05-07T03:36:32;12.20;99.90
4934;DHT22;2482;49.154;8.254;2023-05-07T03:38:59;12.40;99.90
4934;DHT22;2482;49.154;8.254;2023-05-07T03:41:26;12.30;99.90
4934;DHT22;2482;49.154;8.254;2023-05-07T03:43:53;12.20;99.90
4934;DHT22;2482;49.154;8.254;2023-05-07T03:46:20;12.10;99.90
4934;DHT22;2482;49.154;8.254;2023-05-07T03:48:47;12.20;99.90
4934;DHT22;2482;49.154;8.254;2023-05-07T03:51:15;12.40;99.90
4934;DHT22;2482;49.154;8.254;2023-05-07T03:53:42;12.40;99.90
4934;DHT22;2482;49.154;8.254;2023-05-07T03:56:09;12.40;99.90
4934;DHT22;2482;49.154;8.254;2023-05-07T03:58:36;12.20;99.90
4934;DHT22;2482;49.154;8.254;2023-05-07T04:01:03;12.20;99.90
4934;DHT22;2482;49.154;8.254;2023-05-07T04:03:30;12.20;99.90
4934;DHT22;2482;49.154;8.254;2023-05-07T04:05:57;12.10;99.90
4934;DHT22;2482;49.154;8.254;2023-05-07T04:08:24;12.10;99.90
4934;DHT22;2482;49.154;8.254;2023-05-07T04:10:58;12.30;99.90
4934;DHT22;2482;49.154;8.254;2023-05-07T04:13:27;12.40;99.90
4934;DHT22;2482;49.154;8.254;2023-05-07T04:15:55;12.50;99.90
4934;DHT22;2482;49.154;8.254;2023-05-07T04:18:22;12.40;99.90
4934;DHT22;2482;49.154;8.254;2023-05-07T04:20:49;12.30;99.90
4934;DHT22;2482;49.154;8.254;2023-05-07T04:23:16;12.40;99.90
4934;DHT22;2482;49.154;8.254;2023-05-07T04:25:43;12.40;99.90
4934;DHT22;2482;49.154;8.254;2023-05-07T04:28:10;12.40;99.90
4934;DHT22;2482;49.154;8.254;2023-05-07T04:30:38;12.40;99.90
4934;DHT22;2482;49.154;8.254;2023-05-07T04:33:05;12.40;99.90
4934;DHT22;2482;49.154;8.254;2023-05-07T04:35:33;12.50;99.90
4934;DHT22;2482;49.154;8.254;2023-05-07T04:38:00;12.50;99.90
4934;DHT22;2482;49.154;8.254;2023-05-07T04:40:28;12.60;99.90
4934;DHT22;2482;49.154;8.254;2023-05-07T04:42:55;12.70;99.90
4934;DHT22;2482;49.154;8.254;2023-05-07T04:45:22;12.90;99.90
4934;DHT22;2482;49.154;8.254;2023-05-07T04:47:49;13.00;99.90
4934;DHT22;2482;49.154;8.254;2023-05-07T04:50:16;12.90;99.90
4934;DHT22;2482;49.154;8.254;2023-05-07T04:52:45;12.90;99.90
4934;DHT22;2482;49.154;8.254;2023-05-07T04:55:12;13.10;99.90
4934;DHT22;2482;49.154;8.254;2023-05-07T04:57:39;13.30;99.90
4934;DHT22;2482;49.154;8.254;2023-05-07T05:00:08;13.30;99.90
4934;DHT22;2482;49.154;8.254;2023-05-07T05:02:35;13.30;99.90
4934;DHT22;2482;49.154;8.254;2023-05-07T05:05:03;13.30;99.90
4934;DHT22;2482;49.154;8.254;2023-05-07T05:07:30;13.30;99.90
4934;DHT22;2482;49.154;8.254;2023-05-07T05:09:57;13.50;99.90
4934;DHT22;2482;49.154;8.254;2023-05-07T05:12:24;13.50;99.90
4934;DHT22;2482;49.154;8.254;2023-05-07T05:14:51;13.70;99.90
4934;DHT22;2482;49.154;8.254;2023-05-07T05:17:18;13.80;99.90
4934;DHT22;2482;49.154;8.254;2023-05-07T05:19:45;13.80;99.90
4934;DHT22;2482;49.154;8.254;2023-05-07T05:22:12;13.80;99.90
4934;DHT22;2482;49.154;8.254;2023-05-07T05:24:39;13.70;99.90
4934;DHT22;2482;49.154;8.254;2023-05-07T05:27:06;13.70;99.90
4934;DHT22;2482;49.154;8.254;2023-05-07T05:29:33;13.80;99.90
4934;DHT22;2482;49.154;8.254;2023-05-07T05:32:00;13.80;99.90
4934;DHT22;2482;49.154;8.254;2023-05-07T05:34:27;13.80;99.90
4934;DHT22;2482;49.154;8.254;2023-05-07T05:36:54;14.00;99.90
4934;DHT22;2482;49.154;8.254;2023-05-07T05:39:21;14.10;99.90
4934;DHT22;2482;49.154;8.254;2023-05-07T05:41:49;14.10;99.90
4934;DHT22;2482;49.154;8.254;2023-05-07T05:44:16;14.00;99.90
4934;DHT22;2482;49.154;8.254;2023-05-07T05:46:43;14.20;99.90
4934;DHT22;2482;49.154;8.254;2023-05-07T05:49:10;14.40;99.90
4934;DHT22;2482;49.154;8.254;2023-05-07T05:51:37;14.60;99.90
4934;DHT22;2482;49.154;8.254;2023-05-07T05:54:04;14.60;99.90
4934;DHT22;2482;49.154;8.254;2023-05-07T05:56:31;14.70;99.90
4934;DHT22;2482;49.154;8.254;2023-05-07T05:58:58;14.70;99.90
4934;DHT22;2482;49.154;8.254;2023-05-07T06:01:26;14.70;99.90
4934;DHT22;2482;49.154;8.254;2023-05-07T06:03:53;14.80;99.90
4934;DHT22;2482;49.154;8.254;2023-05-07T06:06:20;14.80;99.90
4934;DHT22;2482;49.154;8.254;2023-05-07T06:08:47;14.80;99.90
4934;DHT22;2482;49.154;8.254;2023-05-07T06:11:14;15.00;99.90
4934;DHT22;2482;49.154;8.254;2023-05-07T06:13:41;15.00;99.90
4934;DHT22;2482;49.154;8.254;2023-05-07T06:16:08;15.30;99.90
4934;DHT22;2482;49.154;8.254;2023-05-07T06:18:36;15.30;99.90
4934;DHT22;2482;49.154;8.254;2023-05-07T06:21:03;15.40;99.90
4934;DHT22;2482;49.154;8.254;2023-05-07T06:23:30;15.50;99.90
4934;DHT22;2482;49.154;8.254;2023-05-07T06:25:57;15.70;99.90
4934;DHT22;2482;49.154;8.254;2023-05-07T06:28:24;15.90;99.90
4934;DHT22;2482;49.154;8.254;2023-05-07T06:30:51;15.90;99.90
4934;DHT22;2482;49.154;8.254;2023-05-07T06:33:18;15.90;99.90
4934;DHT22;2482;49.154;8.254;2023-05-07T06:35:46;15.90;99.90
4934;DHT22;2482;49.154;8.254;2023-05-07T06:38:13;15.80;99.90
4934;DHT22;2482;49.154;8.254;2023-05-07T06:40:41;15.90;99.90
4934;DHT22;2482;49.154;8.254;2023-05-07T06:43:07;16.00;99.90
4934;DHT22;2482;49.154;8.254;2023-05-07T06:45:34;16.00;99.90
4934;DHT22;2482;49.154;8.254;2023-05-07T06:48:09;16.20;99.90
4934;DHT22;2482;49.154;8.254;2023-05-07T06:50:36;16.40;99.90
4934;DHT22;2482;49.154;8.254;2023-05-07T06:53:03;16.60;99.90
4934;DHT22;2482;49.154;8.254;2023-05-07T06:55:30;16.70;99.90
4934;DHT22;2482;49.154;8.254;2023-05-07T06:57:57;16.80;99.90
4934;DHT22;2482;49.154;8.254;2023-05-07T07:00:27;17.00;99.90
4934;DHT22;2482;49.154;8.254;2023-05-07T07:02:55;17.10;99.90
4934;DHT22;2482;49.154;8.254;2023-05-07T07:05:22;17.20;99.90
4934;DHT22;2482;49.154;8.254;2023-05-07T07:07:49;17.20;99.90
4934;DHT22;2482;49.154;8.254;2023-05-07T07:10:20;17.00;99.90
4934;DHT22;2482;49.154;8.254;2023-05-07T07:12:49;17.30;99.90
4934;DHT22;2482;49.154;8.254;2023-05-07T07:15:17;17.50;99.90
4934;DHT22;2482;49.154;8.254;2023-05-07T07:17:43;17.60;99.90
4934;DHT22;2482;49.154;8.254;2023-05-07T07:20:11;17.60;99.90
4934;DHT22;2482;49.154;8.254;2023-05-07T07:22:38;17.50;99.90
4934;DHT22;2482;49.154;8.254;2023-05-07T07:25:05;17.60;99.90
4934;DHT22;2482;49.154;8.254;2023-05-07T07:27:32;17.40;99.90
4934;DHT22;2482;49.154;8.254;2023-05-07T07:29:59;17.50;99.90
4934;DHT22;2482;49.154;8.254;2023-05-07T07:32:26;17.60;99.90
4934;DHT22;2482;49.154;8.254;2023-05-07T07:34:53;17.70;99.90
4934;DHT22;2482;49.154;8.254;2023-05-07T07:37:20;18.10;99.90
4934;DHT22;2482;49.154;8.254;2023-05-07T07:39:47;18.20;99.90
4934;DHT22;2482;49.154;8.254;2023-05-07T07:42:14;18.20;99.90
4934;DHT22;2482;49.154;8.254;2023-05-07T07:44:41;18.40;99.90
4934;DHT22;2482;49.154;8.254;2023-05-07T07:47:08;18.50;99.90
4934;DHT22;2482;49.154;8.254;2023-05-07T07:49:35;18.90;99.90
4934;DHT22;2482;49.154;8.254;2023-05-07T07:52:02;19.10;99.90
4934;DHT22;2482;49.154;8.254;2023-05-07T07:54:30;19.20;99.90
4934;DHT22;2482;49.154;8.254;2023-05-07T07:56:57;19.70;99.90
4934;DHT22;2482;49.154;8.254;2023-05-07T07:59:24;20.20;99.90
4934;DHT22;2482;49.154;8.254;2023-05-07T08:01:51;20.30;99.90
4934;DHT22;2482;49.154;8.254;2023-05-07T08:04:22;19.90;99.90
4934;DHT22;2482;49.154;8.254;2023-05-07T08:06:49;19.20;99.90
4934;DHT22;2482;49.154;8.254;2023-05-07T08:09:16;19.00;99.90
4934;DHT22;2482;49.154;8.254;2023-05-07T08:11:43;19.00;99.90
4934;DHT22;2482;49.154;8.254;2023-05-07T08:14:11;18.70;99.90
4934;DHT22;2482;49.154;8.254;2023-05-07T08:16:38;18.90;99.90
4934;DHT22;2482;49.154;8.254;2023-05-07T08:19:05;19.30;99.90
4934;DHT22;2482;49.154;8.254;2023-05-07T08:21:32;19.70;99.90
4934;DHT22;2482;49.154;8.254;2023-05-07T08:24:00;19.70;99.90
4934;DHT22;2482;49.154;8.254;2023-05-07T08:26:27;19.70;99.90
4934;DHT22;2482;49.154;8.254;2023-05-07T08:28:54;20.00;99.90
4934;DHT22;2482;49.154;8.254;2023-05-07T08:31:21;19.90;99.90
4934;DHT22;2482;49.154;8.254;2023-05-07T08:33:48;20.00;99.90
4934;DHT22;2482;49.154;8.254;2023-05-07T08:36:15;20.20;99.90
4934;DHT22;2482;49.154;8.254;2023-05-07T08:38:42;20.30;99.90
4934;DHT22;2482;49.154;8.254;2023-05-07T08:41:12;20.50;99.90
4934;DHT22;2482;49.154;8.254;2023-05-07T08:43:41;20.60;99.90
4934;DHT22;2482;49.154;8.254;2023-05-07T08:46:09;20.70;99.90
4934;DHT22;2482;49.154;8.254;2023-05-07T08:48:38;20.40;99.90
4934;DHT22;2482;49.154;8.254;2023-05-07T08:51:05;20.50;99.90
4934;DHT22;2482;49.154;8.254;2023-05-07T08:53:33;20.90;99.90
4934;DHT22;2482;49.154;8.254;2023-05-07T08:56:00;21.20;99.90
4934;DHT22;2482;49.154;8.254;2023-05-07T08:58:27;21.20;99.90
4934;DHT22;2482;49.154;8.254;2023-05-07T09:00:54;20.80;99.90
4934;DHT22;2482;49.154;8.254;2023-05-07T09:03:21;20.90;99.90
4934;DHT22;2482;49.154;8.254;2023-05-07T09:05:49;21.00;99.90
4934;DHT22;2482;49.154;8.254;2023-05-07T09:08:16;21.60;99.90
4934;DHT22;2482;49.154;8.254;2023-05-07T09:10:44;21.80;99.90
4934;DHT22;2482;49.154;8.254;2023-05-07T09:13:12;21.40;99.90
4934;DHT22;2482;49.154;8.254;2023-05-07T09:15:41;21.30;99.90
4934;DHT22;2482;49.154;8.254;2023-05-07T09:18:08;21.80;99.90
4934;DHT22;2482;49.154;8.254;2023-05-07T09:20:37;22.00;99.90
4934;DHT22;2482;49.154;8.254;2023-05-07T09:23:05;21.90;99.90
4934;DHT22;2482;49.154;8.254;2023-05-07T09:25:35;21.70;99.90
4934;DHT22;2482;49.154;8.254;2023-05-07T09:28:04;22.00;99.90
4934;DHT22;2482;49.154;8.254;2023-05-07T09:30:34;22.00;99.90
4934;DHT22;2482;49.154;8.254;2023-05-07T09:33:03;22.30;99.90
4934;DHT22;2482;49.154;8.254;2023-05-07T09:35:30;22.60;99.90
4934;DHT22;2482;49.154;8.254;2023-05-07T09:37:59;22.50;99.90
4934;DHT22;2482;49.154;8.254;2023-05-07T09:40:30;22.60;99.90
4934;DHT22;2482;49.154;8.254;2023-05-07T09:43:12;22.60;99.90
4934;DHT22;2482;49.154;8.254;2023-05-07T09:45:41;22.50;99.90
4934;DHT22;2482;49.154;8.254;2023-05-07T09:48:08;22.70;99.90
4934;DHT22;2482;49.154;8.254;2023-05-07T09:50:48;23.10;99.90
4934;DHT22;2482;49.154;8.254;2023-05-07T09:53:17;22.80;99.90
4934;DHT22;2482;49.154;8.254;2023-05-07T09:55:45;22.70;99.90
4934;DHT22;2482;49.154;8.254;2023-05-07T09:58:12;23.10;99.90
4934;DHT22;2482;49.154;8.254;2023-05-07T10:00:41;23.00;99.90
4934;DHT22;2482;49.154;8.254;2023-05-07T10:03:09;23.00;99.90
4934;DHT22;2482;49.154;8.254;2023-05-07T10:05:38;22.90;99.90
4934;DHT22;2482;49.154;8.254;2023-05-07T10:08:06;23.00;99.90
4934;DHT22;2482;49.154;8.254;2023-05-07T10:10:35;23.10;99.90
4934;DHT22;2482;49.154;8.254;2023-05-07T10:13:02;22.90;99.90
4934;DHT22;2482;49.154;8.254;2023-05-07T10:15:32;22.80;99.90
4934;DHT22;2482;49.154;8.254;2023-05-07T10:18:03;23.00;99.90
4934;DHT22;2482;49.154;8.254;2023-05-07T10:20:31;23.10;99.90
4934;DHT22;2482;49.154;8.254;2023-05-07T10:23:00;23.60;99.90
4934;DHT22;2482;49.154;8.254;2023-05-07T10:25:31;23.20;99.90
4934;DHT22;2482;49.154;8.254;2023-05-07T10:28:06;23.50;99.90
4934;DHT22;2482;49.154;8.254;2023-05-07T10:33:19;23.40;99.90
4934;DHT22;2482;49.154;8.254;2023-05-07T10:35:51;23.30;99.90
4934;DHT22;2482;49.154;8.254;2023-05-07T10:38:18;23.30;99.90
4934;DHT22;2482;49.154;8.254;2023-05-07T10:40:45;23.40;99.90
4934;DHT22;2482;49.154;8.254;2023-05-07T10:43:13;23.70;99.90
4934;DHT22;2482;49.154;8.254;2023-05-07T10:45:40;23.90;99.90
4934;DHT22;2482;49.154;8.254;2023-05-07T10:51:18;24.20;99.90
4934;DHT22;2482;49.154;8.254;2023-05-07T10:53:47;24.70;99.90
4934;DHT22;2482;49.154;8.254;2023-05-07T10:58:44;24.90;99.90
4934;DHT22;2482;49.154;8.254;2023-05-07T11:01:11;24.80;99.90
4934;DHT22;2482;49.154;8.254;2023-05-07T11:04:14;24.40;99.90
4934;DHT22;2482;49.154;8.254;2023-05-07T11:15:09;24.60;99.90
4934;DHT22;2482;49.154;8.254;2023-05-07T11:17:53;24.60;99.90
4934;DHT22;2482;49.154;8.254;2023-05-07T11:20:47;24.60;99.90
4934;DHT22;2482;49.154;8.254;2023-05-07T11:28:39;24.50;99.90
4934;DHT22;2482;49.154;8.254;2023-05-07T11:31:08;24.40;99.90
4934;DHT22;2482;49.154;8.254;2023-05-07T11:33:37;24.80;99.90
4934;DHT22;2482;49.154;8.254;2023-05-07T11:36:05;25.30;99.90
4934;DHT22;2482;49.154;8.254;2023-05-07T11:38:36;25.20;99.90
4934;DHT22;2482;49.154;8.254;2023-05-07T11:41:04;25.00;99.90
4934;DHT22;2482;49.154;8.254;2023-05-07T11:43:32;24.50;99.90
4934;DHT22;2482;49.154;8.254;2023-05-07T11:46:10;24.30;99.90
4934;DHT22;2482;49.154;8.254;2023-05-07T11:48:39;24.90;99.90
4934;DHT22;2482;49.154;8.254;2023-05-07T11:51:07;25.10;99.90
4934;DHT22;2482;49.154;8.254;2023-05-07T11:53:41;25.10;99.90
4934;DHT22;2482;49.154;8.254;2023-05-07T11:56:10;24.90;99.90
4934;DHT22;2482;49.154;8.254;2023-05-07T11:58:43;24.40;99.90
4934;DHT22;2482;49.154;8.254;2023-05-07T12:01:12;24.60;99.90
4934;DHT22;2482;49.154;8.254;2023-05-07T12:03:41;24.50;99.90
4934;DHT22;2482;49.154;8.254;2023-05-07T12:06:10;24.60;99.90
4934;DHT22;2482;49.154;8.254;2023-05-07T12:08:40;24.80;99.90
4934;DHT22;2482;49.154;8.254;2023-05-07T12:11:11;25.30;99.90
4934;DHT22;2482;49.154;8.254;2023-05-07T12:13:41;26.20;99.90
4934;DHT22;2482;49.154;8.254;2023-05-07T12:16:08;26.40;99.90
4934;DHT22;2482;49.154;8.254;2023-05-07T12:18:36;26.30;99.90
4934;DHT22;2482;49.154;8.254;2023-05-07T12:21:05;26.50;99.90
4934;DHT22;2482;49.154;8.254;2023-05-07T12:23:34;26.20;99.90
4934;DHT22;2482;49.154;8.254;2023-05-07T12:26:02;26.20;99.90
4934;DHT22;2482;49.154;8.254;2023-05-07T12:28:37;26.10;99.90
4934;DHT22;2482;49.154;8.254;2023-05-07T12:31:06;26.10;99.90
4934;DHT22;2482;49.154;8.254;2023-05-07T12:33:35;26.20;99.90
4934;DHT22;2482;49.154;8.254;2023-05-07T12:36:05;26.10;99.90
4934;DHT22;2482;49.154;8.254;2023-05-07T12:38:36;26.20;99.90
4934;DHT22;2482;49.154;8.254;2023-05-07T12:41:05;26.10;99.90
4934;DHT22;2482;49.154;8.254;2023-05-07T12:43:33;26.10;99.90
4934;DHT22;2482;49.154;8.254;2023-05-07T12:46:06;25.90;99.90
4934;DHT22;2482;49.154;8.254;2023-05-07T12:48:38;25.90;99.90
4934;DHT22;2482;49.154;8.254;2023-05-07T12:51:05;25.80;99.90
4934;DHT22;2482;49.154;8.254;2023-05-07T12:53:40;26.10;99.90
4934;DHT22;2482;49.154;8.254;2023-05-07T12:56:10;26.40;99.90
4934;DHT22;2482;49.154;8.254;2023-05-07T12:58:37;26.30;99.90
4934;DHT22;2482;49.154;8.254;2023-05-07T13:01:06;26.10;99.90
4934;DHT22;2482;49.154;8.254;2023-05-07T13:03:36;26.10;99.90
4934;DHT22;2482;49.154;8.254;2023-05-07T13:06:07;26.70;99.90
4934;DHT22;2482;49.154;8.254;2023-05-07T13:08:41;27.20;99.90
4934;DHT22;2482;49.154;8.254;2023-05-07T13:11:12;27.40;99.90
4934;DHT22;2482;49.154;8.254;2023-05-07T13:13:40;26.90;99.90
4934;DHT22;2482;49.154;8.254;2023-05-07T13:16:09;27.00;99.90
4934;DHT22;2482;49.154;8.254;2023-05-07T13:18:39;27.20;99.90
4934;DHT22;2482;49.154;8.254;2023-05-07T13:21:07;27.50;99.90
4934;DHT22;2482;49.154;8.254;2023-05-07T13:23:34;27.10;99.90
4934;DHT22;2482;49.154;8.254;2023-05-07T13:26:02;27.10;99.90
4934;DHT22;2482;49.154;8.254;2023-05-07T13:28:37;27.50;99.90
4934;DHT22;2482;49.154;8.254;2023-05-07T13:31:04;27.90;99.90
4934;DHT22;2482;49.154;8.254;2023-05-07T13:33:31;28.10;99.90
4934;DHT22;2482;49.154;8.254;2023-05-07T13:35:58;28.00;99.90
4934;DHT22;2482;49.154;8.254;2023-05-07T13:38:27;28.30;99.90
4934;DHT22;2482;49.154;8.254;2023-05-07T13:40:54;28.20;99.90
4934;DHT22;2482;49.154;8.254;2023-05-07T13:43:21;27.50;99.90
4934;DHT22;2482;49.154;8.254;2023-05-07T13:45:48;27.20;99.90
4934;DHT22;2482;49.154;8.254;2023-05-07T13:48:15;26.80;99.90
4934;DHT22;2482;49.154;8.254;2023-05-07T13:50:42;26.40;99.90
4934;DHT22;2482;49.154;8.254;2023-05-07T13:53:09;26.10;99.90
4934;DHT22;2482;49.154;8.254;2023-05-07T13:55:36;25.70;99.90
4934;DHT22;2482;49.154;8.254;2023-05-07T13:58:04;25.70;99.90
4934;DHT22;2482;49.154;8.254;2023-05-07T14:00:34;25.70;99.90
4934;DHT22;2482;49.154;8.254;2023-05-07T14:03:11;25.70;99.90
4934;DHT22;2482;49.154;8.254;2023-05-07T14:05:44;25.20;99.90
4934;DHT22;2482;49.154;8.254;2023-05-07T14:08:27;24.50;99.90
4934;DHT22;2482;49.154;8.254;2023-05-07T14:11:08;24.20;99.90
4934;DHT22;2482;49.154;8.254;2023-05-07T14:13:42;24.00;99.90
4934;DHT22;2482;49.154;8.254;2023-05-07T14:16:34;23.70;99.90
4934;DHT22;2482;49.154;8.254;2023-05-07T14:19:02;23.80;99.90
4934;DHT22;2482;49.154;8.254;2023-05-07T14:21:31;24.00;99.90
4934;DHT22;2482;49.154;8.254;2023-05-07T14:23:57;24.30;99.90
4934;DHT22;2482;49.154;8.254;2023-05-07T14:26:25;24.70;99.90
4934;DHT22;2482;49.154;8.254;2023-05-07T14:28:53;24.90;99.90
4934;DHT22;2482;49.154;8.254;2023-05-07T14:31:24;24.90;99.90
4934;DHT22;2482;49.154;8.254;2023-05-07T14:33:51;25.30;99.90
4934;DHT22;2482;49.154;8.254;2023-05-07T14:36:19;25.70;99.90
4934;DHT22;2482;49.154;8.254;2023-05-07T14:38:53;25.80;99.90
4934;DHT22;2482;49.154;8.254;2023-05-07T14:41:22;25.80;99.90
4934;DHT22;2482;49.154;8.254;2023-05-07T14:43:49;25.70;99.90
4934;DHT22;2482;49.154;8.254;2023-05-07T14:46:17;25.00;99.90
4934;DHT22;2482;49.154;8.254;2023-05-07T14:48:45;24.60;99.90
4934;DHT22;2482;49.154;8.254;2023-05-07T14:51:32;24.00;99.90
4934;DHT22;2482;49.154;8.254;2023-05-07T14:53:59;23.90;99.90
4934;DHT22;2482;49.154;8.254;2023-05-07T14:56:27;23.70;99.90
4934;DHT22;2482;49.154;8.254;2023-05-07T14:58:54;23.20;99.90
4934;DHT22;2482;49.154;8.254;2023-05-07T15:01:25;22.00;99.90
4934;DHT22;2482;49.154;8.254;2023-05-07T15:03:52;21.00;99.90
4934;DHT22;2482;49.154;8.254;2023-05-07T15:06:21;20.60;99.90
4934;DHT22;2482;49.154;8.254;2023-05-07T15:08:49;20.10;99.90
4934;DHT22;2482;49.154;8.254;2023-05-07T15:11:16;20.10;99.90
4934;DHT22;2482;49.154;8.254;2023-05-07T15:13:44;19.70;99.90
4934;DHT22;2482;49.154;8.254;2023-05-07T15:16:11;19.40;99.90
4934;DHT22;2482;49.154;8.254;2023-05-07T15:18:39;18.70;99.90
4934;DHT22;2482;49.154;8.254;2023-05-07T15:21:06;18.60;99.90
4934;DHT22;2482;49.154;8.254;2023-05-07T15:23:33;18.30;99.90
4934;DHT22;2482;49.154;8.254;2023-05-07T15:26:00;17.70;99.90
4934;DHT22;2482;49.154;8.254;2023-05-07T15:28:30;17.10;99.90
4934;DHT22;2482;49.154;8.254;2023-05-07T15:30:58;16.90;99.90
4934;DHT22;2482;49.154;8.254;2023-05-07T15:33:24;16.80;99.90
4934;DHT22;2482;49.154;8.254;2023-05-07T15:35:52;16.90;99.90
4934;DHT22;2482;49.154;8.254;2023-05-07T15:38:19;17.00;99.90
4934;DHT22;2482;49.154;8.254;2023-05-07T15:40:47;17.00;99.90
4934;DHT22;2482;49.154;8.254;2023-05-07T15:43:14;17.20;99.90
4934;DHT22;2482;49.154;8.254;2023-05-07T15:45:42;17.10;99.90
4934;DHT22;2482;49.154;8.254;2023-05-07T15:48:10;16.80;99.90
4934;DHT22;2482;49.154;8.254;2023-05-07T15:50:37;16.70;99.90
4934;DHT22;2482;49.154;8.254;2023-05-07T15:53:04;16.60;99.90
4934;DHT22;2482;49.154;8.254;2023-05-07T15:55:32;16.70;99.90
4934;DHT22;2482;49.154;8.254;2023-05-07T15:57:59;16.60;99.90
4934;DHT22;2482;49.154;8.254;2023-05-07T16:00:27;16.70;99.90
4934;DHT22;2482;49.154;8.254;2023-05-07T16:02:54;16.70;99.90
4934;DHT22;2482;49.154;8.254;2023-05-07T16:05:24;16.70;99.90
4934;DHT22;2482;49.154;8.254;2023-05-07T16:07:51;16.70;99.90
4934;DHT22;2482;49.154;8.254;2023-05-07T16:10:19;16.80;99.90
4934;DHT22;2482;49.154;8.254;2023-05-07T16:12:47;16.80;99.90
4934;DHT22;2482;49.154;8.254;2023-05-07T16:15:14;16.60;99.90
4934;DHT22;2482;49.154;8.254;2023-05-07T16:17:41;16.60;99.90
4934;DHT22;2482;49.154;8.254;2023-05-07T16:20:12;16.50;99.90
4934;DHT22;2482;49.154;8.254;2023-05-07T16:22:40;16.50;99.90
4934;DHT22;2482;49.154;8.254;2023-05-07T16:25:08;16.40;99.90
4934;DHT22;2482;49.154;8.254;2023-05-07T16:27:35;16.60;99.90
4934;DHT22;2482;49.154;8.254;2023-05-07T16:30:03;16.50;99.90